Time;durP1;ratioP1;P1;durP2;ratioP2;P2;SDS_P1;SDS_P2;PMS_P1;PMS_P2;Temp;Humidity;BMP_temperature;BMP_pressure;BME280_temperature;BME280_humidity;BME280_pressure;Samples;Min_cycle;Max_cycle;Signal;HPM_P1;HPM_P2
2022/01/06 00:00:45;;;;;;;7.53;1.85;;;;;;;4.58;84.89;99564.63;5015673;28;20050;-78
2022/01/06 00:03:11;;;;;;;10.25;2.65;;;;;;;4.49;85.25;99569.84;5016736;28;20022;-78
2022/01/06 00:05:36;;;;;;;6.03;1.55;;;;;;;4.60;84.36;99552.44;5016822;28;20034;-78
2022/01/06 00:08:02;;;;;;;4.97;1.52;;;;;;;4.63;84.15;99567.25;5016808;28;20492;-77
2022/01/06 00:10:29;;;;;;;7.72;1.42;;;;;;;4.65;83.60;99555.94;5017347;28;20519;-79
2022/01/06 00:23:39;;;;;;;4.47;0.73;;;;;;;4.49;83.27;99562.88;5017296;28;20029;-78
2022/01/06 00:26:06;;;;;;;4.82;0.70;;;;;;;4.39;83.61;99566.31;5017662;28;20033;-78
2022/01/06 00:28:32;;;;;;;3.63;0.70;;;;;;;4.38;83.12;99557.59;5017556;28;20045;-78
2022/01/06 00:30:58;;;;;;;6.15;0.80;;;;;;;4.25;83.97;99574.09;5016231;28;20241;-79
2022/01/06 00:33:25;;;;;;;4.35;0.73;;;;;;;4.26;84.16;99577.59;5016562;28;20034;-78
2022/01/06 00:35:51;;;;;;;4.43;0.70;;;;;;;4.23;84.27;99582.81;5017198;28;20041;-79
2022/01/06 00:38:17;;;;;;;3.65;0.75;;;;;;;4.23;83.88;99583.66;5017643;28;20093;-78
2022/01/06 00:40:42;;;;;;;4.28;0.80;;;;;;;4.31;83.01;99586.31;5017567;28;20063;-79
2022/01/06 00:43:08;;;;;;;6.22;1.30;;;;;;;4.30;82.99;99588.06;5016877;28;20713;-78
2022/01/06 00:45:36;;;;;;;5.20;0.80;;;;;;;4.30;83.36;99588.06;4999281;28;20052;-78
2022/01/06 00:48:02;;;;;;;7.82;1.20;;;;;;;4.29;82.80;99601.09;5017373;28;20042;-79
2022/01/06 00:50:27;;;;;;;7.47;1.48;;;;;;;4.38;83.11;99591.56;5016126;28;20042;-79
2022/01/06 00:52:53;;;;;;;3.95;0.98;;;;;;;4.30;83.61;99600.25;5018050;28;20701;-79
2022/01/06 00:55:18;;;;;;;3.38;0.80;;;;;;;4.21;83.37;99610.66;5017536;28;20037;-79
2022/01/06 00:57:43;;;;;;;3.88;0.98;;;;;;;4.26;82.87;99603.72;5017995;28;20040;-79
2022/01/06 01:00:10;;;;;;;5.90;1.15;;;;;;;4.28;82.57;99602.84;5018294;28;20037;-79
2022/01/06 01:02:36;;;;;;;6.55;1.02;;;;;;;4.28;82.12;99602.84;5017990;28;20047;-79
2022/01/06 01:05:02;;;;;;;5.50;1.10;;;;;;;4.28;82.17;99605.47;5024945;28;20128;-79
2022/01/06 01:07:27;;;;;;;4.85;1.25;;;;;;;4.29;81.47;99619.38;4999903;28;20061;-78
2022/01/06 01:09:52;;;;;;;5.22;0.93;;;;;;;4.35;81.71;99625.53;5018126;28;20037;-79
2022/01/06 01:12:18;;;;;;;7.70;1.30;;;;;;;4.37;81.23;99629.00;5017840;28;20038;-79
2022/01/06 01:14:56;;;;;;;4.53;0.90;;;;;;;4.27;81.86;99637.69;5017759;28;20072;-79
2022/01/06 01:17:25;;;;;;;3.63;0.90;;;;;;;4.20;81.57;99625.44;5017254;28;20050;-79
2022/01/06 01:19:51;;;;;;;3.55;0.82;;;;;;;4.12;81.50;99632.38;5023926;28;20481;-79
2022/01/06 01:22:16;;;;;;;6.20;1.00;;;;;;;4.13;81.33;99641.94;5015990;28;20037;-79
2022/01/06 01:24:41;;;;;;;3.63;0.90;;;;;;;4.09;81.92;99637.59;5021301;28;20048;-79
2022/01/06 01:27:07;;;;;;;6.30;1.30;;;;;;;4.10;81.91;99649.75;5015127;28;20069;-79
2022/01/06 01:29:40;;;;;;;7.57;1.70;;;;;;;4.08;82.62;99661.94;5018496;28;20087;-79
2022/01/06 01:32:06;;;;;;;7.70;1.45;;;;;;;4.18;82.22;99650.69;5018098;28;20034;-79
2022/01/06 01:34:31;;;;;;;3.63;1.40;;;;;;;4.20;82.15;99666.38;5018775;28;20066;-79
2022/01/06 01:36:57;;;;;;;8.20;2.03;;;;;;;4.15;82.41;99668.94;5019965;28;20036;-79
2022/01/06 01:39:23;;;;;;;7.35;2.22;;;;;;;3.98;83.50;99668.81;5019328;28;20034;-79
2022/01/06 01:41:49;;;;;;;5.65;2.00;;;;;;;3.89;84.24;99672.25;5018603;28;20049;-79
2022/01/06 01:44:18;;;;;;;9.02;2.30;;;;;;;3.91;84.25;99685.31;5019082;28;20034;-79
2022/01/06 01:46:57;;;;;;;7.53;2.60;;;;;;;3.92;84.23;99674.00;5018314;28;20048;-79
2022/01/06 01:51:49;;;;;;;6.47;2.10;;;;;;;3.94;84.42;99686.22;5035172;28;20044;-79
2022/01/06 01:54:15;;;;;;;10.57;2.53;;;;;;;3.96;84.56;99688.84;5020384;28;20041;-79
2022/01/06 01:56:41;;;;;;;6.32;2.55;;;;;;;4.00;83.77;99697.56;5020821;28;20033;-79
2022/01/06 01:59:06;;;;;;;6.13;2.08;;;;;;;3.98;83.71;99704.50;5019854;28;20033;-79
2022/01/06 02:01:31;;;;;;;7.95;2.65;;;;;;;4.02;83.51;99698.47;5019394;28;20040;-79
2022/01/06 02:03:57;;;;;;;8.40;2.83;;;;;;;4.09;83.05;99701.13;5019562;28;20030;-78
2022/01/06 02:06:23;;;;;;;9.90;2.97;;;;;;;4.16;83.06;99708.09;5019341;28;20042;-79
2022/01/06 02:08:51;;;;;;;8.13;2.58;;;;;;;4.25;82.37;99712.53;5019864;28;20045;-79
2022/01/06 02:11:16;;;;;;;7.50;3.38;;;;;;;4.15;83.39;99711.59;5019372;28;20092;-78
2022/01/06 02:13:49;;;;;;;9.23;2.00;;;;;;;4.13;83.19;99720.28;5018450;28;20042;-78
2022/01/06 02:16:22;;;;;;;7.38;1.75;;;;;;;4.13;82.65;99733.34;5019320;28;20110;-78
2022/01/06 02:18:49;;;;;;;4.60;1.30;;;;;;;4.14;82.42;99709.88;5023394;28;20046;-79
2022/01/06 02:21:14;;;;;;;11.77;2.22;;;;;;;4.02;82.50;99725.44;5016303;28;20038;-78
2022/01/06 02:23:39;;;;;;;5.25;1.30;;;;;;;4.07;82.29;99721.13;5027237;28;20272;-78
2022/01/06 02:26:04;;;;;;;5.53;1.55;;;;;;;3.95;82.77;99745.38;5020151;28;20108;-78
2022/01/06 02:28:30;;;;;;;5.90;1.40;;;;;;;4.08;81.23;99717.63;5022568;28;20392;-79
2022/01/06 02:30:57;;;;;;;7.78;1.48;;;;;;;4.16;81.60;99722.91;5024515;28;20477;-78
2022/01/06 02:33:24;;;;;;;9.13;1.70;;;;;;;4.17;80.93;99720.31;5022040;28;20034;-79
2022/01/06 02:35:50;;;;;;;6.90;1.67;;;;;;;4.11;80.99;99724.63;5022106;28;20485;-78
2022/01/06 02:38:16;;;;;;;5.97;1.30;;;;;;;4.17;81.34;99729.91;5024180;28;20076;-78
2022/01/06 02:40:42;;;;;;;6.45;1.20;;;;;;;4.15;81.07;99742.06;5033246;28;20057;-78
2022/01/06 02:43:07;;;;;;;4.05;1.88;;;;;;;4.16;81.35;99744.66;5023797;28;20400;-79
2022/01/06 02:45:34;;;;;;;4.88;1.20;;;;;;;4.08;81.97;99735.03;5022580;28;20037;-77
2022/01/06 02:48:08;;;;;;;8.75;1.42;;;;;;;4.06;82.23;99734.16;5024689;28;20069;-79
2022/01/06 02:50:38;;;;;;;7.38;1.10;;;;;;;4.00;83.19;99752.41;5024772;28;20052;-78
2022/01/06 02:53:06;;;;;;;6.47;1.33;;;;;;;3.80;85.47;99760.94;5032962;28;20042;-78
2022/01/06 02:55:32;;;;;;;9.98;1.80;;;;;;;3.62;87.15;99771.22;5024563;28;20416;-78
2022/01/06 02:57:57;;;;;;;7.07;1.48;;;;;;;3.48;89.17;99805.88;5018294;28;20084;-78
2022/01/06 03:00:23;;;;;;;8.23;1.58;;;;;;;2.95;88.70;99807.81;5016457;28;20061;-77
2022/01/06 03:02:48;;;;;;;7.18;1.13;;;;;;;2.34;87.90;99820.84;5014463;28;20515;-75
2022/01/06 03:05:15;;;;;;;4.85;0.90;;;;;;;2.24;88.81;99811.16;5014044;28;20057;-75
2022/01/06 03:07:41;;;;;;;3.13;0.85;;;;;;;2.19;88.78;99804.13;5010191;28;20037;-76
2022/01/06 03:10:10;;;;;;;4.85;1.05;;;;;;;2.18;89.96;99823.22;5014204;28;20399;-75
2022/01/06 03:12:43;;;;;;;3.95;1.00;;;;;;;2.21;89.89;99811.09;5014048;28;20042;-74
2022/01/06 03:15:16;;;;;;;5.60;1.00;;;;;;;2.22;91.00;99820.66;5010442;28;20042;-75
2022/01/06 03:17:45;;;;;;;3.92;1.00;;;;;;;2.24;90.54;99831.97;5013993;28;20042;-76
2022/01/06 03:20:13;;;;;;;3.35;0.80;;;;;;;2.23;90.90;99833.72;5013425;28;20046;-75
2022/01/06 03:22:38;;;;;;;4.28;1.20;;;;;;;2.16;91.18;99829.25;5013673;28;20120;-75
2022/01/06 03:25:05;;;;;;;4.70;1.25;;;;;;;2.19;91.03;99843.16;5012046;28;20040;-75
2022/01/06 03:27:31;;;;;;;4.82;1.27;;;;;;;2.12;91.25;99843.03;5013353;28;20033;-76
2022/01/06 03:29:56;;;;;;;3.35;0.90;;;;;;;2.05;91.29;99849.88;5013746;28;20042;-76
2022/01/06 03:32:22;;;;;;;4.05;0.98;;;;;;;2.03;90.90;99851.59;5013670;28;20404;-75
2022/01/06 03:34:47;;;;;;;3.88;1.10;;;;;;;2.00;91.16;99848.06;5013504;28;20068;-76
2022/01/06 03:37:14;;;;;;;3.50;0.95;;;;;;;1.97;91.38;99869.69;5013649;28;20045;-76
2022/01/06 03:39:40;;;;;;;7.40;1.70;;;;;;;1.96;91.54;99862.72;5020170;28;20038;-76
2022/01/06 03:42:06;;;;;;;5.28;1.30;;;;;;;1.94;91.46;99867.06;5013457;28;20042;-76
2022/01/06 03:44:31;;;;;;;2.72;1.10;;;;;;;1.92;91.05;99876.56;5013300;28;20041;-76
2022/01/06 03:46:57;;;;;;;4.43;1.10;;;;;;;1.94;89.91;99885.28;5012342;28;20038;-76
2022/01/06 03:49:22;;;;;;;9.07;1.77;;;;;;;1.93;88.99;99886.09;5013447;28;20034;-76
2022/01/06 03:51:48;;;;;;;2.40;0.90;;;;;;;1.94;88.86;99890.47;5013406;28;20030;-76
2022/01/06 03:54:14;;;;;;;5.00;1.00;;;;;;;1.86;89.01;99892.03;5013213;28;20121;-77
2022/01/06 03:56:39;;;;;;;5.07;1.10;;;;;;;1.77;88.54;99894.47;5013012;28;20133;-76
2022/01/06 03:59:05;;;;;;;6.28;1.23;;;;;;;1.66;89.43;99910.75;5013361;28;20404;-77
2022/01/06 04:01:31;;;;;;;4.82;1.10;;;;;;;1.62;89.21;99916.72;5020169;28;20488;-76
2022/01/06 04:03:56;;;;;;;9.38;1.73;;;;;;;1.61;88.80;99921.91;5013281;28;20034;-75
2022/01/06 04:06:22;;;;;;;4.38;1.00;;;;;;;1.53;89.05;99934.75;5012892;28;20030;-76
2022/01/06 04:08:47;;;;;;;5.75;1.27;;;;;;;1.49;89.16;99936.44;5011826;28;20452;-76
2022/01/06 04:11:12;;;;;;;7.75;1.95;;;;;;;1.47;89.86;99947.66;5013031;28;20125;-76
2022/01/06 04:13:38;;;;;;;5.13;1.33;;;;;;;1.52;90.25;99954.69;5011668;28;20121;-77
2022/01/06 04:16:08;;;;;;;4.07;1.27;;;;;;;1.51;90.17;99952.03;5012659;28;20125;-76
2022/01/06 04:18:33;;;;;;;6.55;1.63;;;;;;;1.49;90.61;99966.72;5011627;28;20038;-76
2022/01/06 04:20:58;;;;;;;3.97;1.15;;;;;;;1.53;90.50;99972.03;5012829;28;20404;-76
2022/01/06 04:23:24;;;;;;;4.30;1.20;;;;;;;1.59;88.25;99978.22;5012680;28;20022;-77
2022/01/06 04:25:49;;;;;;;5.53;1.10;;;;;;;1.55;86.18;99985.09;5014273;28;20126;-76
2022/01/06 04:28:14;;;;;;;4.82;1.00;;;;;;;1.56;81.99;99989.44;5017825;28;20137;-77
2022/01/06 04:30:40;;;;;;;7.17;1.10;;;;;;;1.54;81.74;100005.00;5019045;28;20049;-77
2022/01/06 04:33:05;;;;;;;7.43;1.45;;;;;;;1.48;80.17;99998.78;5012654;28;20381;-77
2022/01/06 04:35:31;;;;;;;7.38;1.20;;;;;;;1.45;80.98;100003.94;5012417;28;20042;-77
2022/01/06 04:37:56;;;;;;;6.50;0.98;;;;;;;1.31;81.86;100001.03;5012489;28;20537;-77
2022/01/06 04:40:21;;;;;;;5.28;1.08;;;;;;;1.37;79.97;100013.28;5010681;28;20103;-77
2022/01/06 04:42:47;;;;;;;7.03;1.27;;;;;;;1.33;80.13;100017.53;5012493;28;20033;-77
2022/01/06 04:45:12;;;;;;;4.43;0.95;;;;;;;1.32;79.82;100023.56;5012339;28;20533;-77
2022/01/06 04:47:37;;;;;;;4.33;0.77;;;;;;;1.23;80.32;100016.47;5011277;28;20037;-77
2022/01/06 04:50:03;;;;;;;7.60;1.20;;;;;;;1.21;80.79;100014.66;5007501;28;20030;-76
2022/01/06 04:52:29;;;;;;;5.38;1.10;;;;;;;1.17;80.61;100026.69;5011192;28;20036;-76
2022/01/06 04:54:54;;;;;;;8.10;0.85;;;;;;;1.15;80.25;100038.75;5011921;28;20042;-76
2022/01/06 04:57:19;;;;;;;6.43;0.97;;;;;;;1.16;79.70;100032.75;5012161;28;20049;-75
2022/01/06 04:59:45;;;;;;;3.60;1.10;;;;;;;1.06;80.55;100047.22;5012119;28;20510;-78
2022/01/06 05:02:10;;;;;;;6.07;1.13;;;;;;;0.91;81.73;100045.97;5011742;28;20036;-76
2022/01/06 05:04:36;;;;;;;9.10;1.47;;;;;;;0.85;81.47;100054.50;5011569;28;20101;-75
2022/01/06 05:07:01;;;;;;;7.13;1.85;;;;;;;0.85;80.97;100065.75;5011965;28;20045;-77
2022/01/06 05:09:26;;;;;;;4.63;1.20;;;;;;;0.80;81.02;100059.56;5012058;28;20034;-76
2022/01/06 05:11:52;;;;;;;9.53;1.37;;;;;;;0.80;81.04;100058.69;5012033;28;20121;-76
2022/01/06 05:14:17;;;;;;;4.57;1.10;;;;;;;0.70;81.82;100067.97;5011684;28;20116;-76
2022/01/06 05:16:42;;;;;;;9.33;1.40;;;;;;;0.68;81.95;100074.81;5011641;28;20049;-76
2022/01/06 05:19:08;;;;;;;5.60;1.03;;;;;;;0.71;81.45;100080.13;5012262;28;20037;-76
2022/01/06 05:21:33;;;;;;;7.00;1.33;;;;;;;0.69;81.49;100087.00;5011801;28;20120;-76
2022/01/06 05:24:00;;;;;;;4.37;1.07;;;;;;;0.68;81.19;100093.00;5010511;28;20044;-77
2022/01/06 05:26:25;;;;;;;5.73;1.20;;;;;;;0.67;81.87;100091.25;5000731;28;20128;-77
2022/01/06 05:28:51;;;;;;;4.77;0.90;;;;;;;0.72;80.84;100088.78;5011459;28;20121;-77
2022/01/06 05:31:17;;;;;;;7.13;1.10;;;;;;;0.77;80.42;100106.25;5010254;28;20080;-76
2022/01/06 05:33:42;;;;;;;3.13;1.20;;;;;;;0.78;79.87;100100.22;5011061;28;20034;-75
2022/01/06 05:36:08;;;;;;;4.50;0.90;;;;;;;0.78;79.85;100104.53;5010646;28;20493;-77
2022/01/06 05:38:33;;;;;;;7.93;1.07;;;;;;;0.71;79.98;100108.69;5010939;28;20030;-77
2022/01/06 05:40:59;;;;;;;5.87;0.97;;;;;;;0.68;nan;100116.38;5009209;28;20045;-77
2022/01/06 05:43:25;;;;;;;8.27;1.33;;;;;;;0.62;79.46;100124.91;5008664;28;20111;-77
2022/01/06 05:45:53;;;;;;;4.63;1.00;;;;;;;0.52;79.28;100129.78;5009768;28;20081;-75
2022/01/06 05:48:19;;;;;;;5.73;0.80;;;;;;;0.49;79.88;100132.31;5011128;28;20037;-76
2022/01/06 05:50:48;;;;;;;6.47;1.00;;;;;;;0.46;79.46;100147.81;5011376;28;20049;-77
2022/01/06 05:53:14;;;;;;;10.33;1.17;;;;;;;0.43;78.30;100140.81;5007649;28;20038;-76
2022/01/06 05:55:39;;;;;;;5.00;0.83;;;;;;;0.41;78.66;100158.94;5007192;28;20046;-77
2022/01/06 05:58:04;;;;;;;3.17;0.60;;;;;;;0.31;78.95;100166.41;5011326;28;20041;-77
2022/01/06 06:00:30;;;;;;;13.03;1.60;;;;;;;0.28;78.39;100162.00;5011540;28;20106;-77
2022/01/06 06:02:55;;;;;;;3.43;1.07;;;;;;;0.21;78.58;100176.53;5014278;28;20045;-77
2022/01/06 06:05:20;;;;;;;6.87;1.03;;;;;;;0.15;78.35;100189.31;5015663;28;20034;-77
2022/01/06 06:07:45;;;;;;;3.77;0.90;;;;;;;0.16;76.46;100193.69;5011793;28;20401;-77
2022/01/06 06:10:11;;;;;;;3.10;0.90;;;;;;;0.16;77.06;100188.50;5011386;28;20461;-77
2022/01/06 06:12:36;;;;;;;5.50;1.00;;;;;;;0.11;76.32;100205.63;5015090;28;20104;-77
2022/01/06 06:15:02;;;;;;;7.60;1.07;;;;;;;0.09;75.67;100212.50;5015082;28;20038;-77
2022/01/06 06:17:27;;;;;;;4.73;0.63;;;;;;;0.06;76.10;100216.72;5015321;28;20064;-77
2022/01/06 06:19:52;;;;;;;7.10;1.10;;;;;;;0.01;75.56;100231.25;5015247;28;20038;-77
2022/01/06 06:22:18;;;;;;;5.67;0.60;;;;;;;0.02;74.76;100241.66;5022215;28;20045;-77
2022/01/06 06:24:45;;;;;;;7.57;1.00;;;;;;;-0.06;75.66;100236.22;5014825;28;20026;-76
2022/01/06 06:27:10;;;;;;;11.17;2.40;;;;;;;-0.04;74.41;100252.72;5012426;28;20050;-77
2022/01/06 06:29:37;;;;;;;3.97;0.90;;;;;;;-0.07;74.31;100265.63;5011346;28;20145;-77
2022/01/06 06:32:03;;;;;;;3.63;0.60;;;;;;;0.01;74.07;100255.47;5012254;28;20057;-77
2022/01/06 06:34:28;;;;;;;4.97;0.97;;;;;;;-0.09;74.24;100262.06;5014246;28;20048;-77
2022/01/06 06:36:53;;;;;;;6.27;1.00;;;;;;;-0.16;74.38;100275.66;5014883;28;20042;-77
2022/01/06 06:39:19;;;;;;;4.27;0.60;;;;;;;-0.25;75.03;100280.56;5014087;28;20045;-77
2022/01/06 06:41:44;;;;;;;4.60;0.87;;;;;;;-0.26;74.53;100290.06;5011422;28;20045;-77
2022/01/06 06:44:10;;;;;;;3.63;0.70;;;;;;;-0.26;74.89;100291.78;5013288;28;20034;-76
2022/01/06 06:46:35;;;;;;;2.93;0.60;;;;;;;-0.24;74.26;100297.88;5014555;28;20485;-77
2022/01/06 06:49:00;;;;;;;3.37;0.70;;;;;;;-0.29;74.66;100302.03;5014206;28;20069;-77
2022/01/06 06:51:26;;;;;;;2.87;0.73;;;;;;;-0.29;74.49;100309.81;5013444;28;20068;-76
2022/01/06 06:53:51;;;;;;;2.47;0.67;;;;;;;-0.33;75.25;100316.63;5014448;28;20104;-77
2022/01/06 06:56:16;;;;;;;5.10;0.93;;;;;;;-0.39;75.44;100333.66;5013368;28;20038;-77
2022/01/06 06:58:41;;;;;;;7.20;1.17;;;;;;;-0.42;75.57;100341.34;5011358;28;20040;-76
2022/01/06 07:01:07;;;;;;;6.40;1.60;;;;;;;-0.41;75.71;100348.31;5012458;28;20034;-77
2022/01/06 07:03:32;;;;;;;8.30;1.57;;;;;;;-0.47;76.57;100360.22;5010270;28;20049;-77
2022/01/06 07:05:57;;;;;;;4.23;1.27;;;;;;;-0.42;76.07;100362.09;5012582;28;20038;-77
2022/01/06 07:08:23;;;;;;;7.87;1.37;;;;;;;-0.39;75.74;100381.25;5011440;28;20128;-77
2022/01/06 07:10:48;;;;;;;5.93;1.20;;;;;;;-0.39;76.24;100372.56;5012887;28;20052;-77
2022/01/06 07:13:16;;;;;;;3.87;0.90;;;;;;;-0.40;76.46;100379.47;5021528;28;20041;-77
2022/01/06 07:15:43;;;;;;;7.40;1.43;;;;;;;-0.49;76.54;100377.44;5010032;28;20634;-77
2022/01/06 07:18:08;;;;;;;8.70;0.90;;;;;;;-0.49;77.21;100385.22;5014150;28;20124;-76
2022/01/06 07:20:33;;;;;;;6.27;1.20;;;;;;;-0.48;77.43;100410.28;5014215;28;20054;-77
2022/01/06 07:22:59;;;;;;;3.87;0.83;;;;;;;-0.37;77.09;100402.03;5012482;28;20033;-77
2022/01/06 07:25:25;;;;;;;5.63;1.40;;;;;;;-0.35;77.22;100405.56;5013772;28;20033;-77
2022/01/06 07:27:50;;;;;;;4.30;0.90;;;;;;;-0.32;77.74;100411.72;5012796;28;20049;-77
2022/01/06 07:30:16;;;;;;;7.13;1.00;;;;;;;-0.39;78.55;100425.31;5021056;28;20033;-77
2022/01/06 07:32:46;;;;;;;5.00;1.00;;;;;;;-0.32;78.81;100426.41;5013846;28;20041;-77
2022/01/06 07:35:12;;;;;;;7.13;1.33;;;;;;;-0.33;79.16;100440.22;5020652;28;20030;-77
2022/01/06 07:37:37;;;;;;;7.00;1.53;;;;;;;-0.35;79.54;100441.88;5013861;28;20041;-77
2022/01/06 07:40:05;;;;;;;5.23;1.10;;;;;;;-0.31;79.43;100446.34;5013261;28;20092;-77
2022/01/06 07:42:30;;;;;;;6.70;1.30;;;;;;;-0.30;80.05;100440.31;5012141;28;20041;-77
2022/01/06 07:44:56;;;;;;;7.53;2.43;;;;;;;-0.35;80.29;100445.34;5013524;28;20072;-77
2022/01/06 07:47:21;;;;;;;7.10;1.60;;;;;;;-0.34;80.94;100459.19;5013000;28;20038;-77
2022/01/06 07:49:47;;;;;;;9.07;1.90;;;;;;;-0.29;80.71;100455.97;5013703;28;20088;-77
2022/01/06 07:52:12;;;;;;;6.00;1.67;;;;;;;-0.28;81.22;100464.59;5009239;28;20038;-77
2022/01/06 07:54:37;;;;;;;5.43;1.33;;;;;;;-0.19;80.77;100470.13;5012659;28;20092;-77
2022/01/06 07:57:03;;;;;;;7.33;1.43;;;;;;;-0.20;80.98;100463.19;5012277;28;20049;-76
2022/01/06 07:59:28;;;;;;;5.53;1.50;;;;;;;-0.16;81.22;100480.59;5010766;28;20022;-76
2022/01/06 08:01:54;;;;;;;7.37;1.67;;;;;;;-0.17;81.58;100484.03;5010913;28;20038;-77
2022/01/06 08:04:19;;;;;;;6.57;1.13;;;;;;;-0.15;81.28;100482.38;5010941;28;20037;-76
2022/01/06 08:06:44;;;;;;;7.70;1.50;;;;;;;-0.13;82.00;100491.09;5010150;28;20064;-77
2022/01/06 08:09:10;;;;;;;5.67;1.47;;;;;;;-0.07;81.41;100487.84;5011330;28;20041;-77
2022/01/06 08:11:35;;;;;;;6.37;1.40;;;;;;;-0.14;82.22;100504.88;5010729;28;20071;-77
2022/01/06 08:14:00;;;;;;;6.00;1.37;;;;;;;-0.07;82.21;100499.09;5011446;28;20034;-77
2022/01/06 08:16:26;;;;;;;4.20;1.03;;;;;;;-0.10;82.14;100505.91;5009702;28;20112;-77
2022/01/06 08:18:51;;;;;;;7.20;1.30;;;;;;;-0.12;82.54;100515.34;5009263;28;20038;-77
2022/01/06 08:21:16;;;;;;;7.83;1.60;;;;;;;-0.09;82.37;100518.91;5012788;28;20172;-77
2022/01/06 08:23:42;;;;;;;11.63;1.87;;;;;;;-0.11;82.02;100530.94;5012693;28;20137;-77
2022/01/06 08:26:08;;;;;;;6.57;1.30;;;;;;;-0.08;82.52;100525.88;5010077;28;20184;-77
2022/01/06 08:28:33;;;;;;;6.33;1.30;;;;;;;-0.09;82.76;100536.19;5012945;28;20038;-77
2022/01/06 08:30:59;;;;;;;8.03;1.50;;;;;;;-0.05;82.01;100528.59;5012744;28;20087;-77
2022/01/06 08:33:24;;;;;;;6.50;1.30;;;;;;;0.03;82.11;100538.34;5012487;28;20069;-77
2022/01/06 08:35:49;;;;;;;5.13;1.43;;;;;;;0.09;82.29;100538.59;5012521;28;20042;-76
2022/01/06 08:38:15;;;;;;;7.27;1.40;;;;;;;0.11;82.20;100531.75;5011105;28;20037;-76
2022/01/06 08:40:40;;;;;;;7.33;1.30;;;;;;;0.11;82.34;100536.94;5012780;28;20037;-77
2022/01/06 08:43:05;;;;;;;9.43;1.20;;;;;;;0.11;81.96;100550.78;5012495;28;20046;-77
2022/01/06 08:45:32;;;;;;;5.80;1.27;;;;;;;0.17;82.15;100542.34;5011361;28;20479;-78
2022/01/06 08:47:58;;;;;;;5.27;1.13;;;;;;;0.21;81.95;100549.41;5011411;28;20065;-76
2022/01/06 08:50:23;;;;;;;7.20;1.50;;;;;;;0.21;82.18;100544.22;5012732;28;20116;-77
2022/01/06 08:52:50;;;;;;;6.47;1.37;;;;;;;0.29;81.41;100553.16;5012525;28;20075;-77
2022/01/06 08:55:16;;;;;;;3.80;1.30;;;;;;;0.31;82.51;100548.88;5012172;28;20052;-77
2022/01/06 08:57:42;;;;;;;6.47;1.20;;;;;;;0.32;81.97;100554.97;5012307;28;20038;-76
2022/01/06 09:00:10;;;;;;;5.03;1.60;;;;;;;0.32;81.99;100560.19;5012344;28;20408;-77
2022/01/06 09:02:36;;;;;;;6.83;1.07;;;;;;;0.30;81.74;100580.88;5012349;28;20041;-77
2022/01/06 09:05:05;;;;;;;5.00;1.13;;;;;;;0.30;81.74;100570.50;5012134;28;20117;-77
2022/01/06 09:07:31;;;;;;;8.27;1.30;;;;;;;0.26;82.12;100588.50;5012289;28;20038;-77
2022/01/06 09:09:57;;;;;;;6.87;1.50;;;;;;;0.32;81.86;100576.63;5008466;28;20037;-77
2022/01/06 09:12:22;;;;;;;7.03;1.50;;;;;;;0.35;82.05;100578.44;5012189;28;20048;-77
2022/01/06 09:14:47;;;;;;;9.20;1.73;;;;;;;0.42;81.96;100591.72;5011765;28;20033;-77
2022/01/06 09:17:14;;;;;;;14.13;2.10;;;;;;;0.42;82.36;100591.72;5011924;28;20041;-77
2022/01/06 09:19:40;;;;;;;7.30;1.67;;;;;;;0.51;81.62;100591.16;5011754;28;20033;-77
2022/01/06 09:22:05;;;;;;;6.17;1.30;;;;;;;0.57;81.63;100595.66;5011897;28;20033;-77
2022/01/06 09:24:31;;;;;;;6.60;1.33;;;;;;;0.59;81.05;100594.88;5010296;28;20538;-77
2022/01/06 09:26:56;;;;;;;10.77;1.77;;;;;;;0.60;81.53;100601.88;5011943;28;20050;-77
2022/01/06 09:29:21;;;;;;;8.90;1.57;;;;;;;0.63;81.45;100595.91;5010613;28;20034;-77
2022/01/06 09:31:47;;;;;;;5.40;1.50;;;;;;;0.60;81.15;100608.75;5004944;28;20049;-76
2022/01/06 09:34:12;;;;;;;11.17;3.07;;;;;;;0.67;81.15;100608.16;5011528;28;20034;-76
2022/01/06 09:36:40;;;;;;;10.00;2.80;;;;;;;0.68;80.57;100615.09;5011120;28;20061;-77
2022/01/06 09:39:07;;;;;;;9.10;2.83;;;;;;;0.81;81.97;100619.00;5011785;28;20066;-77
2022/01/06 09:41:33;;;;;;;12.50;3.78;;;;;;;0.86;80.76;100623.56;5011743;28;20551;-76
2022/01/06 09:44:00;;;;;;;6.87;2.20;;;;;;;0.91;80.96;100623.69;5011841;28;20049;-77
2022/01/06 09:46:26;;;;;;;7.38;1.60;;;;;;;0.97;80.23;100617.81;5011469;28;20034;-77
2022/01/06 09:48:57;;;;;;;6.47;2.00;;;;;;;1.04;79.55;100625.88;5011839;28;20550;-77
2022/01/06 09:51:23;;;;;;;5.85;1.92;;;;;;;1.10;79.68;100630.38;5019928;28;20038;-77
2022/01/06 09:53:49;;;;;;;6.90;1.40;;;;;;;1.16;79.61;100629.75;5011499;28;20034;-76
2022/01/06 09:56:14;;;;;;;6.85;1.50;;;;;;;1.22;78.80;100630.81;5010080;28;20041;-77
2022/01/06 09:58:40;;;;;;;3.92;1.50;;;;;;;1.28;78.35;100636.22;5011658;28;20482;-77
2022/01/06 10:01:05;;;;;;;6.25;2.13;;;;;;;1.31;78.97;100636.34;5011625;28;20389;-76
2022/01/06 10:03:41;;;;;;;6.03;1.58;;;;;;;1.37;78.98;100637.38;5011068;28;20100;-77
2022/01/06 10:06:18;;;;;;;8.57;2.00;;;;;;;1.35;78.95;100628.63;5010465;28;20038;-77
2022/01/06 10:08:55;;;;;;;5.88;1.60;;;;;;;1.46;78.30;100635.03;5007635;28;20042;-77
2022/01/06 10:11:24;;;;;;;6.88;1.85;;;;;;;1.43;78.28;100634.94;5011240;28;20037;-77
2022/01/06 10:14:10;;;;;;;7.95;2.00;;;;;;;1.51;77.56;100643.88;5009966;28;20033;-77
2022/01/06 10:16:44;;;;;;;7.75;2.00;;;;;;;1.54;77.86;100656.97;5005921;28;20092;-77
2022/01/06 10:19:11;;;;;;;11.10;2.65;;;;;;;1.55;77.63;100661.38;5011493;28;20037;-76
2022/01/06 10:21:40;;;;;;;5.28;1.40;;;;;;;1.62;76.55;100665.91;5011332;28;20065;-77
2022/01/06 10:24:13;;;;;;;5.18;1.23;;;;;;;1.68;76.56;100662.66;5010124;28;20054;-77
2022/01/06 10:27:06;;;;;;;6.50;1.80;;;;;;;1.74;76.55;100661.09;5011038;28;20096;-77
2022/01/06 10:29:52;;;;;;;8.35;2.05;;;;;;;1.72;76.33;100659.28;5003804;28;20038;-76
2022/01/06 10:32:19;;;;;;;7.55;2.20;;;;;;;1.74;76.78;100663.72;5008571;28;20052;-77
2022/01/06 10:34:50;;;;;;;6.10;2.22;;;;;;;1.81;76.62;100656.09;5009430;28;20093;-80
2022/01/06 10:37:39;;;;;;;4.25;1.83;;;;;;;1.89;76.16;100663.31;5011667;28;20038;-79
2022/01/06 10:40:07;;;;;;;6.78;2.38;;;;;;;1.92;76.49;100665.13;5011959;28;20041;-80
2022/01/06 10:42:34;;;;;;;7.50;2.10;;;;;;;1.90;76.22;100659.00;5012744;28;20496;-80
2022/01/06 10:45:09;;;;;;;7.55;1.75;;;;;;;1.97;75.93;100672.25;5012534;28;20076;-81
2022/01/06 10:47:40;;;;;;;7.30;1.88;;;;;;;2.01;76.06;100685.34;5013384;28;20416;-79
2022/01/06 10:50:14;;;;;;;6.72;2.40;;;;;;;2.02;75.43;100675.00;5015300;28;20042;-80
2022/01/06 10:52:45;;;;;;;5.93;1.70;;;;;;;2.09;75.51;100681.25;5014936;28;20037;-80
2022/01/06 10:55:12;;;;;;;6.15;1.80;;;;;;;2.10;75.08;100670.91;5015285;28;20038;-81
2022/01/06 10:57:52;;;;;;;7.47;2.10;;;;;;;2.17;75.43;100678.06;5016131;28;20034;-79
2022/01/06 11:00:22;;;;;;;7.53;2.53;;;;;;;2.24;75.21;100671.31;5022315;28;20152;-78
2022/01/06 11:02:47;;;;;;;6.78;1.95;;;;;;;2.31;75.27;100683.69;5016535;28;20041;-79
2022/01/06 11:05:12;;;;;;;4.93;1.98;;;;;;;2.34;74.20;100675.94;5021778;28;20076;-80
2022/01/06 11:07:38;;;;;;;10.25;1.70;;;;;;;2.33;75.03;100681.09;5024018;28;20037;-79
2022/01/06 11:10:13;;;;;;;7.68;1.80;;;;;;;2.34;75.11;100683.75;5019494;28;20045;-80
2022/01/06 11:12:39;;;;;;;8.60;1.58;;;;;;;2.32;74.78;100694.97;5015666;28;20045;-80
2022/01/06 11:15:05;;;;;;;7.15;2.58;;;;;;;2.36;74.60;100699.44;5015146;28;20037;-80
2022/01/06 11:17:30;;;;;;;7.32;1.30;;;;;;;2.34;74.03;100695.91;5015142;28;20045;-79
2022/01/06 11:19:56;;;;;;;4.25;1.42;;;;;;;2.35;74.01;100690.72;5014490;28;20527;-80
2022/01/06 11:22:25;;;;;;;6.78;1.60;;;;;;;2.44;74.74;100689.22;5014168;28;20037;-79
2022/01/06 11:24:56;;;;;;;6.85;1.60;;;;;;;2.39;74.06;100696.94;5011995;28;20049;-80
2022/01/06 11:27:35;;;;;;;5.78;1.40;;;;;;;2.42;74.35;100710.03;5015205;28;20042;-80
2022/01/06 11:30:13;;;;;;;6.93;1.83;;;;;;;2.47;73.33;100703.25;5011603;28;20049;-80
2022/01/06 11:32:41;;;;;;;5.55;1.90;;;;;;;2.49;74.09;100698.97;5010363;28;20132;-81
2022/01/06 11:35:11;;;;;;;7.13;2.13;;;;;;;2.54;73.46;100728.66;5011232;28;20038;-80
2022/01/06 11:37:41;;;;;;;6.68;1.50;;;;;;;2.49;72.15;100714.59;5009453;28;20488;-80
2022/01/06 11:40:07;;;;;;;6.53;1.42;;;;;;;2.49;71.91;100708.47;5014214;28;20038;-80
2022/01/06 11:42:33;;;;;;;5.15;1.40;;;;;;;2.48;72.47;100694.56;5012629;28;20121;-81
2022/01/06 11:44:58;;;;;;;2.90;0.93;;;;;;;2.55;72.87;100699.13;5013932;28;20549;-77